KHCD

Hutchinson Municipal-Butler Field Airport

Hutchinson, Minnesota, USA
METAR KHCD 140435Z AUTO 12004KT 10SM CLR M07/M09 A3039 RMK AO2 T10661086
Observed Flight Rules
Nov-14 @ 04:35 UTC (13 minutes ago) Visual Flight Rules
Wind Visibility Clouds
120° at 4 knots 10 miles
  • Clear skies
Temperatures Readings
Current -7°C / 19°F
Dewpoint -9°C / 16°F
Humidity 86%
Altimeter 30.39" Hg
Pressure 1029 hPa
Elevation 323
METAR KHCD 140435Z AUTO 12004KT 10SM CLR M07/M09 A3039 RMK AO2 T10661086
Observed Flight Rules
Nov-14 @ 04:35 UTC
(13 minutes ago)
VFR
Wind Visibility
120° at 4 knots 10 miles
Clouds
  • Clear skies
Temperature Dewpoint
-7°C / 19°F -9°C / 16°F
Humidity Altimeter Pressure
86% 30.39" Hg 1029 hPa